Terminal Aerodrome Forecast
Issued by NWS

Home | Current Version | Previous Version | Graphics & Text | Print | Product List | Glossary On
Versions: 1 2 3 4 5 6 7 8 9 10 11 12 13 14 15
000
FTUS43 KIWX 211700
TAFSBN
TAF
KSBN 211720Z 2118/2218 21008G16KT P6SM BKN150
     FM212100 23012G20KT P6SM BKN050
      TEMPO 2121/2124 -SHRA
     FM220000 24010KT 6SM -SHRA BKN035
     FM220600 32014G24KT P6SM BKN025
     FM221200 33014G24KT P6SM SKC=

USA.gov is the U.S. government's official web portal to all federal, state and local government web resources and services.